Wetterdaten: Woche 06.01.20 - 12.01.20 (KW2)
Datum Zeit Temp. Aussen Temp. o. S. Temp +5cm Feuchte Auss Luftdruck Regen Sonnenschein Regendauer Solar Windben Empfang
06.01.2020 00:00 6,1 C 5,6 C 5,0 C 87 % 1032,5 hPa 0,0 l/m 0,00 h 0,00 h 0 W/m 0,9 km/h (0 Bft) 98,48 %
06.01.2020 01:00 6,1 C 5,6 C 5,0 C 86 % 1032,0 hPa 0,0 l/m 0,00 h 0,00 h 0 W/m 0,3 km/h (0 Bft) 96,52 %
06.01.2020 02:00 6,0 C 5,6 C 4,8 C 87 % 1031,6 hPa 0,0 l/m 0,00 h 0,00 h 0 W/m 0,1 km/h (0 Bft) 97,87 %
06.01.2020 03:00 5,9 C 5,6 C 5,0 C 87 % 1031,2 hPa 0,0 l/m 0,00 h 0,00 h 0 W/m 1,3 km/h (1 Bft) 97,72 %
06.01.2020 04:00 6,1 C 5,6 C 5,0 C 86 % 1030,7 hPa 0,0 l/m 0,00 h 0,00 h 0 W/m 0,9 km/h (0 Bft) 98,01 %
06.01.2020 05:00 6,0 C 5,6 C 4,8 C 86 % 1030,3 hPa 0,0 l/m 0,00 h 0,00 h 0 W/m 0,2 km/h (0 Bft) 96,65 %
06.01.2020 06:00 5,9 C 5,0 C 4,4 C 86 % 1029,9 hPa 0,0 l/m 0,00 h 0,00 h 0 W/m 0,6 km/h (0 Bft) 97,08 %
06.01.2020 07:00 5,8 C 5,0 C 4,4 C 87 % 1029,7 hPa 0,0 l/m 0,00 h 0,00 h 0 W/m 0,8 km/h (0 Bft) 99,07 %
06.01.2020 08:00 5,6 C 5,0 C 4,4 C 87 % 1029,5 hPa 0,0 l/m 0,00 h 0,00 h 5 W/m 1,4 km/h (1 Bft) 94,39 %
06.01.2020 09:00 5,4 C 5,0 C 4,4 C 86 % 1029,2 hPa 0,0 l/m 0,00 h 0,00 h 22 W/m 2,4 km/h (1 Bft) 97,29 %
06.01.2020 10:00 5,4 C 5,2 C 4,6 C 84 % 1028,9 hPa 0,0 l/m 0,00 h 0,00 h 67 W/m 6,8 km/h (2 Bft) 99,29 %
06.01.2020 11:00 5,6 C 6,6 C 5,0 C 83 % 1028,0 hPa 0,0 l/m 0,30 h 0,00 h 155 W/m 9,4 km/h (2 Bft) 93,58 %
06.01.2020 12:00 6,8 C 10,1 C 6,0 C 78 % 1027,1 hPa 0,0 l/m 1,00 h 0,00 h 298 W/m 11,9 km/h (2 Bft) 98,93 %
06.01.2020 13:00 7,8 C 11,0 C 6,0 C 74 % 1025,7 hPa 0,0 l/m 1,00 h 0,00 h 285 W/m 6,0 km/h (2 Bft) 95,84 %
06.01.2020 14:00 7,5 C 9,6 C 5,9 C 76 % 1024,7 hPa 0,0 l/m 0,95 h 0,00 h 227 W/m 8,3 km/h (2 Bft) 98,37 %
06.01.2020 15:00 6,6 C 6,1 C 5,0 C 79 % 1023,7 hPa 0,0 l/m 0,00 h 0,00 h 33 W/m 7,2 km/h (2 Bft) 99,93 %
06.01.2020 16:00 6,1 C 5,2 C 4,5 C 81 % 1022,7 hPa 0,0 l/m 0,08 h 0,00 h 13 W/m 1,6 km/h (1 Bft) 93,14 %
06.01.2020 17:00 5,6 C 4,7 C 3,9 C 84 % 1022,3 hPa 0,0 l/m 0,00 h 0,00 h 0 W/m 4,9 km/h (1 Bft) 98,01 %
06.01.2020 18:00 5,2 C 4,4 C 3,8 C 86 % 1021,8 hPa 0,0 l/m 0,00 h 0,00 h 0 W/m 20,8 km/h (4 Bft) 98,79 %
06.01.2020 19:00 4,8 C 3,9 C 3,3 C 88 % 1021,8 hPa 0,0 l/m 0,00 h 0,00 h 0 W/m 14,8 km/h (3 Bft) 96,30 %
06.01.2020 20:00 4,2 C 3,4 C 2,7 C 88 % 1021,8 hPa 0,0 l/m 0,00 h 0,00 h 0 W/m 10,8 km/h (2 Bft) 97,72 %
06.01.2020 21:00 3,6 C 2,8 C 2,1 C 89 % 1021,6 hPa 0,0 l/m 0,00 h 0,00 h 0 W/m 5,4 km/h (1 Bft) 96,58 %
06.01.2020 22:00 3,2 C 2,2 C 1,4 C 89 % 1021,6 hPa 0,0 l/m 0,00 h 0,00 h 0 W/m 0,5 km/h (0 Bft) 96,64 %
06.01.2020 23:00 3,4 C 3,4 C 2,7 C 89 % 1022,1 hPa 0,0 l/m 0,00 h 0,00 h 0 W/m 2,4 km/h (1 Bft) 98,57 %
07.01.2020 00:00 4,7 C 4,4 C 3,8 C 88 % 1022,4 hPa 0,0 l/m 0,00 h 0,00 h 0 W/m 2,0 km/h (1 Bft) 95,86 %
07.01.2020 01:00 4,9 C 3,9 C 3,3 C 91 % 1022,7 hPa 0,0 l/m 0,00 h 0,17 h 0 W/m 4,1 km/h (1 Bft) 96,88 %
07.01.2020 02:00 4,7 C 3,5 C 3,1 C 94 % 1023,2 hPa 1,2 l/m 0,00 h 0,60 h 0 W/m 1,7 km/h (1 Bft) 97,72 %
07.01.2020 03:00 4,9 C 4,1 C 3,5 C 97 % 1023,6 hPa 0,0 l/m 0,00 h 0,10 h 0 W/m 2,6 km/h (1 Bft) 97,30 %
07.01.2020 04:00 5,3 C 4,4 C 3,9 C 98 % 1023,8 hPa 0,0 l/m 0,00 h 0,00 h 0 W/m 2,9 km/h (1 Bft) 97,34 %
07.01.2020 05:00 5,7 C 5,0 C 4,4 C 98 % 1024,4 hPa 0,0 l/m 0,00 h 0,00 h 0 W/m 1,8 km/h (1 Bft) 97,72 %
07.01.2020 06:00 6,0 C 5,2 C 4,5 C 99 % 1025,1 hPa 0,0 l/m 0,00 h 0,00 h 0 W/m 0,5 km/h (0 Bft) 97,80 %
07.01.2020 07:00 6,3 C 5,6 C 5,0 C 99 % 1026,0 hPa 0,0 l/m 0,00 h 0,00 h 0 W/m 1,2 km/h (1 Bft) 96,87 %
07.01.2020 08:00 6,4 C 5,5 C 4,9 C 99 % 1026,7 hPa 0,0 l/m 0,00 h 0,00 h 7 W/m 3,1 km/h (1 Bft) 96,72 %
07.01.2020 09:00 6,3 C 5,9 C 5,1 C 99 % 1027,4 hPa 0,0 l/m 0,00 h 0,00 h 21 W/m 1,4 km/h (1 Bft) 96,77 %
07.01.2020 10:00 6,7 C 6,7 C 5,9 C 99 % 1027,8 hPa 0,0 l/m 0,00 h 0,00 h 58 W/m 1,0 km/h (0 Bft) 97,65 %
07.01.2020 11:00 7,2 C 7,2 C 6,7 C 99 % 1028,2 hPa 0,0 l/m 0,00 h 0,00 h 71 W/m 7,7 km/h (2 Bft) 95,80 %
07.01.2020 12:00 7,6 C 7,8 C 7,1 C 97 % 1028,0 hPa 0,0 l/m 0,00 h 0,00 h 84 W/m 4,6 km/h (1 Bft) 99,50 %
07.01.2020 13:00 8,0 C 7,8 C 7,1 C 95 % 1027,9 hPa 0,0 l/m 0,00 h 0,00 h 52 W/m 9,9 km/h (2 Bft) 97,23 %
07.01.2020 14:00 8,3 C 8,1 C 7,5 C 93 % 1027,7 hPa 0,0 l/m 0,03 h 0,00 h 65 W/m 2,1 km/h (1 Bft) 94,01 %
07.01.2020 15:00 8,7 C 8,5 C 7,6 C 91 % 1027,5 hPa 0,0 l/m 0,30 h 0,00 h 57 W/m 7,1 km/h (2 Bft) 99,50 %
07.01.2020 16:00 8,6 C 7,6 C 6,8 C 88 % 1027,4 hPa 0,0 l/m 0,20 h 0,00 h 17 W/m 2,4 km/h (1 Bft) 96,29 %
07.01.2020 17:00 7,5 C 6,3 C 5,6 C 90 % 1027,3 hPa 0,0 l/m 0,00 h 0,00 h 0 W/m 1,9 km/h (1 Bft) 97,15 %
07.01.2020 18:00 6,8 C 6,2 C 5,6 C 91 % 1027,0 hPa 0,0 l/m 0,00 h 0,00 h 0 W/m 1,2 km/h (1 Bft) 98,65 %
07.01.2020 19:00 6,9 C 6,6 C 5,6 C 91 % 1026,7 hPa 0,0 l/m 0,00 h 0,00 h 0 W/m 0,9 km/h (0 Bft) 94,46 %
07.01.2020 20:00 6,8 C 6,1 C 5,6 C 89 % 1026,1 hPa 0,0 l/m 0,00 h 0,00 h 0 W/m 4,9 km/h (1 Bft) 98,50 %
07.01.2020 21:00 6,5 C 6,0 C 5,0 C 89 % 1025,8 hPa 0,0 l/m 0,00 h 0,00 h 0 W/m 3,7 km/h (1 Bft) 97,08 %
07.01.2020 22:00 6,5 C 5,9 C 4,9 C 88 % 1026,0 hPa 0,0 l/m 0,00 h 0,00 h 0 W/m 0,2 km/h (0 Bft) 97,79 %
07.01.2020 23:00 6,1 C 5,5 C 4,7 C 89 % 1025,9 hPa 0,0 l/m 0,00 h 0,00 h 0 W/m 0,3 km/h (0 Bft) 99,22 %
08.01.2020 00:00 6,2 C 5,6 C 5,0 C 89 % 1025,5 hPa 0,0 l/m 0,00 h 0,00 h 0 W/m 0,7 km/h (0 Bft) 94,69 %
08.01.2020 01:00 6,4 C 6,0 C 5,4 C 89 % 1024,6 hPa 0,0 l/m 0,00 h 0,00 h 0 W/m 2,9 km/h (1 Bft) 99,21 %
08.01.2020 02:00 6,8 C 6,2 C 5,6 C 87 % 1023,7 hPa 0,0 l/m 0,00 h 0,00 h 0 W/m 12,0 km/h (2 Bft) 99,29 %
08.01.2020 03:00 7,1 C 6,7 C 6,1 C 87 % 1023,3 hPa 0,0 l/m 0,00 h 0,00 h 0 W/m 4,8 km/h (1 Bft) 93,30 %
08.01.2020 04:00 7,2 C 6,7 C 6,1 C 88 % 1023,3 hPa 0,0 l/m 0,00 h 0,00 h 0 W/m 3,0 km/h (1 Bft) 99,03 %
08.01.2020 05:00 7,5 C 6,5 C 5,9 C 91 % 1023,3 hPa 0,0 l/m 0,00 h 0,03 h 0 W/m 5,8 km/h (2 Bft) 98,22 %
08.01.2020 06:00 7,6 C 6,7 C 6,1 C 95 % 1023,0 hPa 0,0 l/m 0,00 h 0,10 h 0 W/m 6,0 km/h (2 Bft) 94,79 %
08.01.2020 07:00 7,4 C 6,7 C 6,1 C 96 % 1023,1 hPa 0,0 l/m 0,00 h 0,00 h 0 W/m 4,8 km/h (1 Bft) 98,01 %
08.01.2020 08:00 7,7 C 6,9 C 6,5 C 97 % 1023,4 hPa 0,0 l/m 0,00 h 0,00 h 0 W/m 3,2 km/h (1 Bft) 97,38 %
08.01.2020 09:00 8,3 C 7,6 C 7,2 C 98 % 1023,7 hPa 0,0 l/m 0,00 h 0,00 h 7 W/m 1,3 km/h (1 Bft) 96,22 %
08.01.2020 10:00 10,0 C 9,9 C 9,2 C 99 % 1024,1 hPa 0,0 l/m 0,00 h 0,00 h 18 W/m 9,9 km/h (2 Bft) 96,72 %
08.01.2020 11:00 10,8 C 10,3 C 9,8 C 99 % 1024,1 hPa 0,0 l/m 0,00 h 0,13 h 47 W/m 10,9 km/h (2 Bft) 96,91 %
08.01.2020 12:00 11,3 C 10,7 C 10,0 C 99 % 1023,6 hPa 0,0 l/m 0,00 h 0,03 h 62 W/m 10,4 km/h (2 Bft) 97,41 %
08.01.2020 13:00 11,4 C 11,0 C 10,5 C 99 % 1023,3 hPa 0,0 l/m 0,00 h 0,00 h 44 W/m 10,0 km/h (2 Bft) 96,26 %
08.01.2020 14:00 11,4 C 10,6 C 10,0 C 99 % 1023,4 hPa 0,0 l/m 0,00 h 0,03 h 29 W/m 8,9 km/h (2 Bft) 99,36 %
08.01.2020 15:00 11,3 C 10,4 C 10,0 C 99 % 1023,5 hPa 0,0 l/m 0,00 h 0,27 h 16 W/m 6,3 km/h (2 Bft) 96,23 %
08.01.2020 16:00 11,3 C 10,6 C 10,0 C 99 % 1023,7 hPa 0,2 l/m 0,00 h 0,03 h 6 W/m 3,4 km/h (1 Bft) 97,45 %
08.01.2020 17:00 11,3 C 10,2 C 9,7 C 100 % 1024,3 hPa 1,4 l/m 0,00 h 0,63 h 0 W/m 1,3 km/h (1 Bft) 99,19 %
08.01.2020 18:00 11,2 C 10,0 C 9,4 C 100 % 1024,5 hPa 0,4 l/m 0,00 h 0,23 h 0 W/m 0,3 km/h (0 Bft) 96,23 %
08.01.2020 19:00 11,2 C 10,0 C 9,4 C 100 % 1024,4 hPa 0,0 l/m 0,00 h 0,03 h 0 W/m 0,2 km/h (0 Bft) 98,22 %
08.01.2020 20:00 11,2 C 10,0 C 9,5 C 100 % 1024,1 hPa 0,0 l/m 0,00 h 0,27 h 0 W/m 0,3 km/h (0 Bft) 97,72 %
08.01.2020 21:00 11,0 C 10,0 C 9,4 C 100 % 1023,8 hPa 0,2 l/m 0,00 h 0,37 h 0 W/m 0,0 km/h (0 Bft) 97,01 %
08.01.2020 22:00 10,8 C 10,0 C 9,4 C 100 % 1023,5 hPa 0,6 l/m 0,00 h 0,67 h 0 W/m 3,3 km/h (1 Bft) 98,36 %
08.01.2020 23:00 10,6 C 9,4 C 9,0 C 100 % 1023,1 hPa 0,8 l/m 0,00 h 1,00 h 0 W/m 1,3 km/h (1 Bft) 96,58 %
09.01.2020 00:00 10,5 C 9,4 C 9,0 C 100 % 1022,6 hPa 1,0 l/m 0,00 h 1,00 h 0 W/m 0,1 km/h (0 Bft) 96,82 %
09.01.2020 01:00 10,4 C 9,4 C 8,9 C 100 % 1021,6 hPa 0,2 l/m 0,00 h 0,57 h 0 W/m 4,8 km/h (1 Bft) 96,44 %
09.01.2020 02:00 10,3 C 9,4 C 8,9 C 100 % 1020,8 hPa 0,0 l/m 0,00 h 0,03 h 0 W/m 8,3 km/h (2 Bft) 96,36 %
09.01.2020 03:00 10,0 C 9,0 C 8,6 C 100 % 1019,8 hPa 0,0 l/m 0,00 h 0,23 h 0 W/m 10,9 km/h (2 Bft) 97,22 %
09.01.2020 04:00 9,7 C 8,8 C 8,3 C 100 % 1018,8 hPa 0,4 l/m 0,00 h 0,47 h 0 W/m 11,7 km/h (2 Bft) 96,52 %
09.01.2020 05:00 9,6 C 8,9 C 8,3 C 100 % 1017,7 hPa 0,0 l/m 0,00 h 0,50 h 0 W/m 13,4 km/h (3 Bft) 96,38 %
09.01.2020 06:00 9,6 C 8,9 C 8,3 C 100 % 1016,7 hPa 0,0 l/m 0,00 h 0,13 h 0 W/m 18,7 km/h (3 Bft) 95,94 %
09.01.2020 07:00 9,8 C 8,9 C 8,3 C 100 % 1015,9 hPa 0,0 l/m 0,00 h 0,47 h 0 W/m 21,5 km/h (4 Bft) 98,93 %
09.01.2020 08:00 10,1 C 9,2 C 8,8 C 100 % 1015,2 hPa 0,2 l/m 0,00 h 0,70 h 6 W/m 17,8 km/h (3 Bft) 97,38 %
09.01.2020 09:00 10,3 C 9,4 C 8,9 C 100 % 1015,0 hPa 0,0 l/m 0,00 h 0,30 h 13 W/m 14,0 km/h (3 Bft) 96,30 %
09.01.2020 10:00 10,5 C 9,4 C 9,2 C 100 % 1014,5 hPa 0,2 l/m 0,00 h 0,33 h 19 W/m 9,9 km/h (2 Bft) 99,79 %
09.01.2020 11:00 11,0 C 10,5 C 9,9 C 100 % 1014,1 hPa 0,0 l/m 0,00 h 0,27 h 34 W/m 15,8 km/h (3 Bft) 95,94 %
09.01.2020 12:00 11,9 C 10,9 C 10,1 C 99 % 1013,3 hPa 0,0 l/m 0,00 h 0,53 h 25 W/m 29,2 km/h (5 Bft) 97,66 %
09.01.2020 13:00 12,2 C 10,9 C 10,0 C 95 % 1012,1 hPa 0,0 l/m 0,00 h 0,50 h 39 W/m 27,4 km/h (4 Bft) 99,37 %
09.01.2020 14:00 12,3 C 11,7 C 10,4 C 96 % 1011,8 hPa 0,2 l/m 0,00 h 0,00 h 32 W/m 20,8 km/h (4 Bft) 95,96 %
09.01.2020 15:00 12,8 C 12,2 C 11,6 C 94 % 1011,4 hPa 0,0 l/m 0,00 h 0,00 h 23 W/m 22,4 km/h (4 Bft) 97,50 %
09.01.2020 16:00 13,0 C 12,2 C 11,7 C 91 % 1011,1 hPa 0,0 l/m 0,00 h 0,00 h 9 W/m 25,5 km/h (4 Bft) 96,31 %
09.01.2020 17:00 13,0 C 12,2 C 11,7 C 91 % 1011,0 hPa 0,0 l/m 0,00 h 0,00 h 0 W/m 17,9 km/h (3 Bft) 96,96 %
09.01.2020 18:00 12,9 C 12,2 C 11,7 C 91 % 1010,9 hPa 0,0 l/m 0,00 h 0,00 h 0 W/m 17,9 km/h (3 Bft) 97,40 %
09.01.2020 19:00 12,8 C 12,2 C 11,5 C 91 % 1010,7 hPa 0,0 l/m 0,00 h 0,00 h 0 W/m 19,8 km/h (4 Bft) 98,58 %
09.01.2020 20:00 12,7 C 12,0 C 11,1 C 90 % 1010,5 hPa 0,0 l/m 0,00 h 0,00 h 0 W/m 17,7 km/h (3 Bft) 97,19 %
09.01.2020 21:00 12,4 C 11,0 C 10,2 C 91 % 1010,2 hPa 0,4 l/m 0,00 h 0,57 h 0 W/m 17,1 km/h (3 Bft) 96,41 %
09.01.2020 22:00 11,5 C 9,9 C 9,4 C 95 % 1009,9 hPa 0,6 l/m 0,00 h 0,57 h 0 W/m 17,7 km/h (3 Bft) 99,51 %
09.01.2020 23:00 11,0 C 9,4 C 9,0 C 97 % 1009,9 hPa 0,8 l/m 0,00 h 0,90 h 0 W/m 17,2 km/h (3 Bft) 97,72 %
10.01.2020 00:00 10,5 C 9,2 C 8,9 C 97 % 1010,4 hPa 1,2 l/m 0,00 h 0,60 h 0 W/m 16,2 km/h (3 Bft) 96,10 %
10.01.2020 01:00 10,2 C 9,0 C 8,4 C 97 % 1010,5 hPa 0,0 l/m 0,00 h 0,00 h 0 W/m 17,5 km/h (3 Bft) 99,64 %
10.01.2020 02:00 10,3 C 9,0 C 8,3 C 96 % 1011,1 hPa 0,2 l/m 0,00 h 0,37 h 0 W/m 21,2 km/h (4 Bft) 96,72 %
10.01.2020 03:00 9,5 C 7,5 C 7,2 C 93 % 1011,8 hPa 0,4 l/m 0,00 h 0,73 h 0 W/m 20,3 km/h (4 Bft) 96,94 %
10.01.2020 04:00 9,0 C 7,7 C 6,9 C 93 % 1012,2 hPa 0,0 l/m 0,00 h 0,00 h 0 W/m 16,0 km/h (3 Bft) 97,65 %
10.01.2020 05:00 9,0 C 7,9 C 7,0 C 93 % 1012,7 hPa 0,0 l/m 0,00 h 0,13 h 0 W/m 8,2 km/h (2 Bft) 96,65 %
10.01.2020 06:00 8,8 C 7,8 C 6,9 C 93 % 1013,2 hPa 0,0 l/m 0,00 h 0,00 h 0 W/m 2,6 km/h (1 Bft) 98,29 %
10.01.2020 07:00 8,7 C 7,3 C 6,7 C 95 % 1013,6 hPa 0,4 l/m 0,00 h 0,70 h 0 W/m 0,5 km/h (0 Bft) 97,80 %
10.01.2020 08:00 8,3 C 6,8 C 6,7 C 96 % 1014,1 hPa 1,2 l/m 0,00 h 0,73 h 0 W/m 7,8 km/h (2 Bft) 97,29 %
10.01.2020 09:00 8,0 C 6,7 C 6,4 C 97 % 1014,7 hPa 0,2 l/m 0,00 h 0,57 h 18 W/m 4,1 km/h (1 Bft) 99,00 %
10.01.2020 10:00 8,0 C 7,2 C 6,7 C 98 % 1015,7 hPa 0,0 l/m 0,03 h 0,20 h 59 W/m 2,6 km/h (1 Bft) 94,18 %
10.01.2020 11:00 8,2 C 7,3 C 7,0 C 98 % 1016,8 hPa 0,0 l/m 0,00 h 0,00 h 45 W/m 2,9 km/h (1 Bft) 98,79 %
10.01.2020 12:00 8,3 C 7,6 C 7,1 C 97 % 1017,8 hPa 0,0 l/m 0,00 h 0,00 h 58 W/m 4,1 km/h (1 Bft) 99,29 %
10.01.2020 13:00 8,3 C 7,5 C 7,2 C 97 % 1019,0 hPa 0,0 l/m 0,00 h 0,00 h 50 W/m 6,5 km/h (2 Bft) 94,59 %
10.01.2020 14:00 8,1 C 6,9 C 6,8 C 96 % 1020,5 hPa 0,0 l/m 0,00 h 0,17 h 24 W/m 15,3 km/h (3 Bft) 97,52 %
10.01.2020 15:00 7,5 C 6,6 C 6,6 C 96 % 1022,1 hPa 0,0 l/m 0,00 h 0,00 h 31 W/m 18,2 km/h (3 Bft) 97,27 %
10.01.2020 16:00 7,1 C 6,1 C 6,0 C 95 % 1023,9 hPa 0,0 l/m 0,00 h 0,00 h 11 W/m 21,0 km/h (4 Bft) 95,44 %
10.01.2020 17:00 6,8 C 6,1 C 5,6 C 94 % 1025,3 hPa 0,0 l/m 0,00 h 0,00 h 0 W/m 17,8 km/h (3 Bft) 99,01 %
10.01.2020 18:00 6,5 C 5,4 C 5,2 C 93 % 1026,5 hPa 0,0 l/m 0,00 h 0,00 h 0 W/m 10,5 km/h (2 Bft) 97,57 %
10.01.2020 19:00 5,5 C 3,8 C 3,5 C 93 % 1027,8 hPa 0,0 l/m 0,00 h 0,00 h 0 W/m 3,4 km/h (1 Bft) 96,65 %
10.01.2020 20:00 4,4 C 3,0 C 2,6 C 94 % 1028,7 hPa 0,0 l/m 0,00 h 0,00 h 0 W/m 1,9 km/h (1 Bft) 97,23 %
10.01.2020 21:00 3,5 C 2,4 C 1,8 C 95 % 1029,7 hPa 0,0 l/m 0,00 h 0,00 h 0 W/m 0,9 km/h (0 Bft) 94,78 %
10.01.2020 22:00 3,2 C 2,0 C 1,2 C 96 % 1030,2 hPa 0,0 l/m 0,00 h 0,00 h 0 W/m 0,0 km/h (0 Bft) 99,63 %
10.01.2020 23:00 2,6 C 1,2 C 0,5 C 96 % 1031,1 hPa 0,0 l/m 0,00 h 0,00 h 0 W/m 0,1 km/h (0 Bft) 95,55 %
11.01.2020 00:00 2,2 C 1,0 C 0,1 C 96 % 1032,0 hPa 0,0 l/m 0,00 h 0,00 h 0 W/m 0,0 km/h (0 Bft) 94,61 %
11.01.2020 01:00 1,8 C 0,4 C -0,6 C 96 % 1032,0 hPa 0,0 l/m 0,00 h 0,00 h 0 W/m 0,0 km/h (0 Bft) 97,38 %
11.01.2020 02:00 1,6 C 0,9 C -0,1 C 97 % 1032,4 hPa 0,0 l/m 0,00 h 0,00 h 0 W/m 0,5 km/h (0 Bft) 96,26 %
11.01.2020 03:00 1,8 C 0,9 C -0,2 C 97 % 1032,4 hPa 0,2 l/m 0,00 h 0,00 h 0 W/m 0,4 km/h (0 Bft) 96,09 %
11.01.2020 04:00 2,1 C 1,2 C 0,7 C 98 % 1032,7 hPa 0,0 l/m 0,00 h 0,00 h 0 W/m 0,6 km/h (0 Bft) 98,48 %
11.01.2020 05:00 2,8 C 2,2 C 1,7 C 99 % 1032,7 hPa 0,0 l/m 0,00 h 0,00 h 0 W/m 1,5 km/h (1 Bft) 98,08 %
11.01.2020 06:00 3,3 C 2,7 C 2,2 C 99 % 1032,5 hPa 0,0 l/m 0,00 h 0,00 h 0 W/m 0,9 km/h (0 Bft) 96,51 %
11.01.2020 07:00 3,4 C 2,6 C 2,0 C 99 % 1032,3 hPa 0,0 l/m 0,00 h 0,00 h 0 W/m 1,0 km/h (0 Bft) 96,94 %
11.01.2020 08:00 3,6 C 3,0 C 2,4 C 99 % 1032,6 hPa 0,0 l/m 0,00 h 0,00 h 7 W/m 1,8 km/h (1 Bft) 99,29 %
11.01.2020 09:00 3,7 C 4,0 C 3,1 C 99 % 1032,7 hPa 0,0 l/m 0,03 h 0,00 h 48 W/m 4,3 km/h (1 Bft) 96,79 %
11.01.2020 10:00 4,3 C 5,1 C 4,3 C 99 % 1032,7 hPa 0,0 l/m 0,00 h 0,00 h 78 W/m 10,9 km/h (2 Bft) 96,94 %
11.01.2020 11:00 5,3 C 5,8 C 5,1 C 95 % 1032,6 hPa 0,0 l/m 0,00 h 0,00 h 94 W/m 19,4 km/h (3 Bft) 99,36 %
11.01.2020 12:00 6,0 C 5,9 C 5,4 C 89 % 1031,8 hPa 0,0 l/m 0,00 h 0,00 h 105 W/m 18,8 km/h (3 Bft) 95,23 %
11.01.2020 13:00 6,5 C 7,2 C 6,1 C 84 % 1031,2 hPa 0,0 l/m 0,40 h 0,00 h 155 W/m 21,9 km/h (4 Bft) 98,66 %
11.01.2020 14:00 7,1 C 8,3 C 6,1 C 80 % 1030,5 hPa 0,0 l/m 1,00 h 0,00 h 193 W/m 24,7 km/h (4 Bft) 98,65 %
11.01.2020 15:00 7,1 C 6,6 C 5,9 C 80 % 1030,3 hPa 0,0 l/m 0,03 h 0,00 h 61 W/m 14,3 km/h (3 Bft) 95,51 %
11.01.2020 16:00 6,6 C 5,8 C 5,2 C 82 % 1030,1 hPa 0,0 l/m 0,00 h 0,00 h 15 W/m 7,8 km/h (2 Bft) 99,50 %
11.01.2020 17:00 5,9 C 4,9 C 4,3 C 85 % 1029,9 hPa 0,0 l/m 0,00 h 0,00 h 0 W/m 4,8 km/h (1 Bft) 97,30 %
11.01.2020 18:00 5,4 C 4,4 C 3,9 C 87 % 1029,6 hPa 0,0 l/m 0,00 h 0,00 h 0 W/m 10,4 km/h (2 Bft) 97,51 %
11.01.2020 19:00 5,2 C 4,4 C 3,8 C 87 % 1029,3 hPa 0,0 l/m 0,00 h 0,00 h 0 W/m 21,1 km/h (4 Bft) 97,87 %
11.01.2020 20:00 4,8 C 4,0 C 3,3 C 87 % 1029,0 hPa 0,0 l/m 0,00 h 0,00 h 0 W/m 16,6 km/h (3 Bft) 96,89 %
11.01.2020 21:00 4,2 C 3,4 C 2,9 C 88 % 1028,5 hPa 0,0 l/m 0,00 h 0,00 h 0 W/m 16,0 km/h (3 Bft) 99,17 %
11.01.2020 22:00 3,8 C 3,0 C 2,4 C 90 % 1028,0 hPa 0,0 l/m 0,00 h 0,00 h 0 W/m 16,1 km/h (3 Bft) 95,95 %
11.01.2020 23:00 3,4 C 2,8 C 2,2 C 91 % 1027,5 hPa 0,0 l/m 0,00 h 0,00 h 0 W/m 16,0 km/h (3 Bft) 95,89 %
12.01.2020 00:00 3,4 C 2,9 C 2,1 C 91 % 1027,0 hPa 0,0 l/m 0,00 h 0,00 h 0 W/m 17,5 km/h (3 Bft) 99,63 %
12.01.2020 01:00 3,1 C 2,2 C 1,7 C 91 % 1026,3 hPa 0,0 l/m 0,00 h 0,00 h 0 W/m 14,2 km/h (3 Bft) 97,58 %
12.01.2020 02:00 2,8 C 2,2 C 1,7 C 92 % 1025,9 hPa 0,0 l/m 0,00 h 0,00 h 0 W/m 15,0 km/h (3 Bft) 95,86 %
12.01.2020 03:00 2,9 C 2,5 C 1,7 C 93 % 1025,4 hPa 0,0 l/m 0,00 h 0,00 h 0 W/m 20,8 km/h (4 Bft) 97,52 %
12.01.2020 04:00 3,1 C 2,6 C 1,8 C 92 % 1024,9 hPa 0,0 l/m 0,00 h 0,00 h 0 W/m 20,9 km/h (4 Bft) 96,29 %
12.01.2020 05:00 3,2 C 2,8 C 2,2 C 92 % 1024,6 hPa 0,0 l/m 0,00 h 0,00 h 0 W/m 18,4 km/h (3 Bft) 97,40 %
12.01.2020 06:00 3,6 C 3,2 C 2,5 C 91 % 1024,0 hPa 0,0 l/m 0,00 h 0,00 h 0 W/m 21,7 km/h (4 Bft) 97,61 %
12.01.2020 07:00 4,2 C 3,9 C 3,2 C 90 % 1023,2 hPa 0,0 l/m 0,00 h 0,00 h 0 W/m 21,0 km/h (4 Bft) 96,70 %
12.01.2020 08:00 4,7 C 4,3 C 3,6 C 89 % 1022,7 hPa 0,0 l/m 0,00 h 0,00 h 9 W/m 20,3 km/h (4 Bft) 99,59 %
12.01.2020 09:00 5,2 C 4,9 C 4,0 C 88 % 1022,4 hPa 0,0 l/m 0,00 h 0,00 h 26 W/m 21,3 km/h (4 Bft) 96,11 %
12.01.2020 10:00 5,9 C 6,0 C 5,2 C 87 % 1022,3 hPa 0,0 l/m 0,00 h 0,00 h 67 W/m 22,6 km/h (4 Bft) 97,20 %
12.01.2020 11:00 7,2 C 7,6 C 6,8 C 85 % 1022,0 hPa 0,0 l/m 0,00 h 0,00 h 99 W/m 21,3 km/h (4 Bft) 99,15 %
12.01.2020 12:00 8,1 C 7,7 C 7,0 C 84 % 1021,4 hPa 0,0 l/m 0,00 h 0,00 h 32 W/m 12,4 km/h (3 Bft) 96,43 %
12.01.2020 13:00 7,9 C 6,9 C 6,4 C 89 % 1020,9 hPa 0,0 l/m 0,00 h 0,20 h 49 W/m 28,5 km/h (4 Bft) 97,18 %
12.01.2020 14:00 7,3 C 6,1 C 5,6 C 94 % 1020,7 hPa 0,2 l/m 0,00 h 0,23 h 19 W/m 21,7 km/h (4 Bft) 97,59 %
12.01.2020 15:00 7,3 C 6,5 C 6,0 C 96 % 1020,8 hPa 0,0 l/m 0,00 h 0,00 h 14 W/m 21,5 km/h (4 Bft) 96,70 %
12.01.2020 16:00 7,7 C 7,0 C 6,3 C 94 % 1021,1 hPa 0,0 l/m 0,00 h 0,00 h 8 W/m 22,0 km/h (4 Bft) 96,09 %
12.01.2020 17:00 8,0 C 7,2 C 6,6 C 93 % 1021,4 hPa 0,0 l/m 0,00 h 0,00 h 0 W/m 27,2 km/h (4 Bft) 97,86 %
12.01.2020 18:00 8,1 C 7,5 C 6,8 C 92 % 1021,7 hPa 0,0 l/m 0,00 h 0,03 h 0 W/m 28,9 km/h (5 Bft) 99,00 %
12.01.2020 19:00 8,2 C 6,8 C 6,2 C 92 % 1021,9 hPa 0,0 l/m 0,00 h 0,97 h 0 W/m 25,6 km/h (4 Bft) 94,95 %
12.01.2020 20:00 7,9 C 6,8 C 6,2 C 94 % 1022,1 hPa 0,0 l/m 0,00 h 0,00 h 0 W/m 23,2 km/h (4 Bft) 98,57 %
12.01.2020 21:00 7,9 C 7,2 C 6,7 C 94 % 1022,5 hPa 0,0 l/m 0,00 h 0,00 h 0 W/m 15,7 km/h (3 Bft) 97,50 %
12.01.2020 22:00 7,9 C 7,0 C 6,4 C 93 % 1022,8 hPa 0,0 l/m 0,00 h 0,00 h 0 W/m 16,9 km/h (3 Bft) 95,50 %
12.01.2020 23:00 7,8 C 7,1 C 6,5 C 94 % 1023,2 hPa 0,0 l/m 0,00 h 0,00 h 0 W/m 19,5 km/h (3 Bft) 98,37 %
Min-Datum _ 11.01.20 11.01.20 11.01.20 06.01.20 09.01.20 - - - - 06.01.20 12.01.20
_ Min-Zeit 02:00 01:28 01:48 13:50 23:12 - - - - 00:00 03:24
Minimum _ 1,4 C 0,0 C -1,1 C 73 % 1009,6 hPa - - - - 0,0 km/h (0 Bft) 44,44 %
Max-Datum _ 09.01.20 09.01.20 09.01.20 08.01.20 11.01.20 08.01.20 06.01.20 09.01.20 06.01.20 09.01.20 06.01.20
_ Max-Zeit 16:34 14:32 15:12 16:38 08:58 17:28 14:25 00:08 12:00 12:46 00:02
Maximum _ 13,1 C 12,2 C 11,7 C 100 % 1033,0 hPa 1,4 l/m 0,08 h 0,07 h 310 W/m 48,3 km/h
S-SO (6 Bft)
100,00 %
Durchschnitt _ 7,2 C 6,6 C 5,9 C 93 % 1023,4 hPa #12,8 l/m #5:22 h #18:32 h 55 W/m 9,8 km/h (2 Bft) 97,27 %
© 2020 W. Hausmann